Time;durP1;ratioP1;P1;durP2;ratioP2;P2;SDS_P1;SDS_P2;PMS_P1;PMS_P2;Temp;Humidity;BMP_temperature;BMP_pressure;BME280_temperature;BME280_humidity;BME280_pressure;Samples;Min_cycle;Max_cycle;Signal;HPM_P1;HPM_P2
2020/12/09 00:02:25;;;;;;;49.03;24.75;;;;;;;;;;4918503;29;20091;-71
2020/12/09 00:04:51;;;;;;;45.08;23.15;;;;;;;;;;4919742;29;20419;-71
2020/12/09 00:07:17;;;;;;;53.22;27.52;;;;;;;;;;4919085;29;20047;-71
2020/12/09 00:09:43;;;;;;;45.67;24.55;;;;;;;;;;4920336;29;20135;-71
2020/12/09 00:12:10;;;;;;;49.58;25.73;;;;;;;;;;4937233;29;20051;-71
2020/12/09 00:14:36;;;;;;;51.00;25.48;;;;;;;;;;4924930;29;20079;-71
2020/12/09 00:17:02;;;;;;;49.22;24.70;;;;;;;;;;4908892;29;20084;-71
2020/12/09 00:19:28;;;;;;;46.92;23.88;;;;;;;;;;4948036;28;20027;-70
2020/12/09 00:21:54;;;;;;;52.00;24.05;;;;;;;;;;4945316;28;20047;-70
2020/12/09 00:24:20;;;;;;;48.88;25.50;;;;;;;;;;4945587;28;20036;-70
2020/12/09 00:26:46;;;;;;;48.10;24.38;;;;;;;;;;4945291;28;20035;-69
2020/12/09 00:29:12;;;;;;;57.42;26.80;;;;;;;;;;4961473;28;20064;-70
2020/12/09 00:31:38;;;;;;;51.63;25.13;;;;;;;;;;4929704;28;20405;-69
2020/12/09 00:34:04;;;;;;;52.65;27.50;;;;;;;;;;4944939;28;20032;-69
2020/12/09 00:36:30;;;;;;;63.97;27.63;;;;;;;;;;4929620;28;20031;-69
2020/12/09 00:38:56;;;;;;;61.15;28.92;;;;;;;;;;4944693;28;20044;-69
2020/12/09 00:41:24;;;;;;;57.78;28.13;;;;;;;;;;4945127;28;20043;-70
2020/12/09 00:43:50;;;;;;;59.03;27.45;;;;;;;;;;4945198;28;20090;-69
2020/12/09 00:46:18;;;;;;;57.20;26.70;;;;;;;;;;4928954;28;20051;-69
2020/12/09 00:48:45;;;;;;;56.13;26.67;;;;;;;;;;4929418;28;20067;-69
2020/12/09 00:51:15;;;;;;;58.20;26.60;;;;;;;;;;4944890;28;20035;-69
2020/12/09 00:53:41;;;;;;;50.90;24.73;;;;;;;;;;4944822;28;20068;-70
2020/12/09 00:56:08;;;;;;;54.92;26.95;;;;;;;;;;4941597;28;20047;-70
2020/12/09 00:58:34;;;;;;;55.97;26.52;;;;;;;;;;4944810;28;20036;-70
2020/12/09 01:01:01;;;;;;;55.30;26.55;;;;;;;;;;4944238;28;20036;-69
2020/12/09 01:03:27;;;;;;;56.05;27.65;;;;;;;;;;4944789;28;20043;-69
2020/12/09 01:05:53;;;;;;;54.90;25.90;;;;;;;;;;4960765;28;20035;-69
2020/12/09 01:08:20;;;;;;;54.08;26.58;;;;;;;;;;4944545;28;20044;-70
2020/12/09 01:10:46;;;;;;;53.60;26.75;;;;;;;;;;4944611;28;20032;-69
2020/12/09 01:13:13;;;;;;;52.88;26.05;;;;;;;;;;4943863;28;20039;-70
2020/12/09 01:15:39;;;;;;;54.35;25.95;;;;;;;;;;4928591;28;20039;-69
2020/12/09 01:18:05;;;;;;;50.50;25.52;;;;;;;;;;4960456;28;20055;-69
2020/12/09 01:20:31;;;;;;;54.13;25.90;;;;;;;;;;4928507;28;20032;-70
2020/12/09 01:22:57;;;;;;;53.25;26.63;;;;;;;;;;4947902;28;20495;-71
2020/12/09 01:25:23;;;;;;;53.85;25.95;;;;;;;;;;4935139;29;20491;-71
2020/12/09 01:27:49;;;;;;;52.92;25.08;;;;;;;;;;4902533;29;20499;-71
2020/12/09 01:30:15;;;;;;;50.30;25.05;;;;;;;;;;4934852;29;20083;-71
2020/12/09 01:32:41;;;;;;;60.22;27.10;;;;;;;;;;4902638;29;20094;-71
2020/12/09 01:35:09;;;;;;;51.85;25.02;;;;;;;;;;4934519;29;20075;-71
2020/12/09 01:37:35;;;;;;;58.17;27.50;;;;;;;;;;4918208;29;20083;-72
2020/12/09 01:40:01;;;;;;;60.80;28.40;;;;;;;;;;4917713;29;20098;-72
2020/12/09 01:42:27;;;;;;;53.53;25.15;;;;;;;;;;4917770;29;20731;-72
2020/12/09 01:44:53;;;;;;;51.72;24.90;;;;;;;;;;4917682;29;20047;-72
2020/12/09 01:47:19;;;;;;;52.00;25.10;;;;;;;;;;4917526;29;20075;-71
2020/12/09 01:49:45;;;;;;;56.75;25.58;;;;;;;;;;4902240;29;20134;-71
2020/12/09 01:52:11;;;;;;;51.72;25.08;;;;;;;;;;4886620;29;20099;-71
2020/12/09 01:54:38;;;;;;;57.50;27.67;;;;;;;;;;4917731;29;20083;-71
2020/12/09 01:57:11;;;;;;;55.70;26.17;;;;;;;;;;4917007;29;20051;-71
2020/12/09 01:59:39;;;;;;;63.30;28.00;;;;;;;;;;4902414;29;20111;-71
2020/12/09 02:02:06;;;;;;;55.40;26.80;;;;;;;;;;4901813;29;20524;-72
2020/12/09 02:04:33;;;;;;;54.63;25.63;;;;;;;;;;4902257;29;20095;-72
2020/12/09 02:06:59;;;;;;;59.08;27.85;;;;;;;;;;4917064;29;20099;-71
2020/12/09 02:09:26;;;;;;;54.85;26.80;;;;;;;;;;4917590;29;20585;-72
2020/12/09 02:11:53;;;;;;;57.05;26.48;;;;;;;;;;4901773;29;20055;-72
2020/12/09 02:14:20;;;;;;;66.18;28.52;;;;;;;;;;4901844;29;20054;-72
2020/12/09 02:16:54;;;;;;;60.78;28.42;;;;;;;;;;4901426;29;20051;-71
2020/12/09 02:19:20;;;;;;;57.70;27.45;;;;;;;;;;4902595;29;20052;-71
2020/12/09 02:21:47;;;;;;;55.05;26.30;;;;;;;;;;4917559;29;20101;-71
2020/12/09 02:24:14;;;;;;;55.10;26.17;;;;;;;;;;4901552;29;20131;-73
2020/12/09 02:26:42;;;;;;;55.95;26.48;;;;;;;;;;4900819;29;20748;-71
2020/12/09 02:29:08;;;;;;;56.03;27.92;;;;;;;;;;4901520;29;20051;-72
2020/12/09 02:31:34;;;;;;;52.38;27.17;;;;;;;;;;4917379;29;20055;-71
2020/12/09 02:34:00;;;;;;;56.22;25.83;;;;;;;;;;4916889;29;20075;-71
2020/12/09 02:36:26;;;;;;;54.85;26.05;;;;;;;;;;4901305;29;20577;-71
2020/12/09 02:38:52;;;;;;;55.97;27.40;;;;;;;;;;4917233;29;20115;-71
2020/12/09 02:41:19;;;;;;;60.22;25.33;;;;;;;;;;4917356;29;20075;-72
2020/12/09 02:43:45;;;;;;;56.15;28.52;;;;;;;;;;4917272;29;20052;-71
2020/12/09 02:46:11;;;;;;;53.72;25.15;;;;;;;;;;4933500;29;20052;-72
2020/12/09 02:48:37;;;;;;;56.00;25.95;;;;;;;;;;4934192;29;20126;-71
2020/12/09 02:51:03;;;;;;;53.60;25.60;;;;;;;;;;4933738;29;20052;-72
2020/12/09 02:53:29;;;;;;;54.50;26.45;;;;;;;;;;4933904;29;20055;-75
2020/12/09 02:55:55;;;;;;;55.60;25.85;;;;;;;;;;4933479;29;20064;-72
2020/12/09 02:58:21;;;;;;;58.90;28.63;;;;;;;;;;4916984;29;20052;-71
2020/12/09 03:00:47;;;;;;;55.88;26.73;;;;;;;;;;4917003;29;20060;-71
2020/12/09 03:03:13;;;;;;;56.70;26.50;;;;;;;;;;4933981;29;20083;-71
2020/12/09 03:05:39;;;;;;;51.13;27.50;;;;;;;;;;4916999;29;20048;-71
2020/12/09 03:08:05;;;;;;;58.53;27.90;;;;;;;;;;4933591;29;20055;-72
2020/12/09 03:10:31;;;;;;;51.38;24.98;;;;;;;;;;4933928;29;20107;-72
2020/12/09 03:12:58;;;;;;;51.42;25.98;;;;;;;;;;4933832;29;20055;-72
2020/12/09 03:15:24;;;;;;;51.25;26.48;;;;;;;;;;4916736;29;20127;-72
2020/12/09 03:17:50;;;;;;;53.15;24.88;;;;;;;;;;4933599;29;20051;-72
2020/12/09 03:20:16;;;;;;;61.38;27.95;;;;;;;;;;4933643;29;20064;-71
2020/12/09 03:22:42;;;;;;;54.05;27.50;;;;;;;;;;4901260;29;20056;-72
2020/12/09 03:25:08;;;;;;;58.45;26.65;;;;;;;;;;4933527;29;20048;-72
2020/12/09 03:27:34;;;;;;;52.22;24.73;;;;;;;;;;4901079;29;20177;-72
2020/12/09 03:30:01;;;;;;;53.42;26.38;;;;;;;;;;4916993;29;20055;-72
2020/12/09 03:32:27;;;;;;;52.53;25.55;;;;;;;;;;4901303;29;20106;-72
2020/12/09 03:34:53;;;;;;;53.65;27.13;;;;;;;;;;4933530;29;20043;-72
2020/12/09 03:37:19;;;;;;;59.30;27.02;;;;;;;;;;4935497;29;20491;-72
2020/12/09 03:39:45;;;;;;;63.80;27.15;;;;;;;;;;4919922;29;20111;-71
2020/12/09 03:42:11;;;;;;;58.55;26.80;;;;;;;;;;4904603;29;20083;-72
2020/12/09 03:44:38;;;;;;;63.25;28.73;;;;;;;;;;4919903;29;20193;-72
2020/12/09 03:47:05;;;;;;;68.82;29.20;;;;;;;;;;4919900;29;20131;-72
2020/12/09 03:49:31;;;;;;;61.80;30.20;;;;;;;;;;4904422;29;20103;-72
2020/12/09 03:51:58;;;;;;;73.22;29.48;;;;;;;;;;4919937;29;20052;-72
2020/12/09 03:54:24;;;;;;;65.53;29.30;;;;;;;;;;4919615;29;20098;-72
2020/12/09 03:56:51;;;;;;;68.95;30.65;;;;;;;;;;4936426;29;20060;-71
2020/12/09 03:59:17;;;;;;;75.25;32.65;;;;;;;;;;4903809;29;20060;-72
2020/12/09 04:01:43;;;;;;;76.15;31.55;;;;;;;;;;4904473;29;20052;-72
2020/12/09 04:04:09;;;;;;;72.55;32.22;;;;;;;;;;4903971;29;20043;-71
2020/12/09 04:06:36;;;;;;;78.10;32.30;;;;;;;;;;4919541;29;20094;-72
2020/12/09 04:09:03;;;;;;;64.65;29.38;;;;;;;;;;4919488;29;20082;-72
2020/12/09 04:11:30;;;;;;;65.10;29.52;;;;;;;;;;4919548;29;20056;-72
2020/12/09 04:13:56;;;;;;;64.35;28.77;;;;;;;;;;4936176;29;20043;-72
2020/12/09 04:16:22;;;;;;;70.25;30.42;;;;;;;;;;4919126;29;20507;-72
2020/12/09 04:18:48;;;;;;;69.70;30.90;;;;;;;;;;4919493;29;20052;-71
2020/12/09 04:21:15;;;;;;;78.97;32.63;;;;;;;;;;4919332;29;20056;-71
2020/12/09 04:23:41;;;;;;;75.38;29.73;;;;;;;;;;4919320;29;20468;-71
2020/12/09 04:26:07;;;;;;;82.57;33.40;;;;;;;;;;4935500;29;20455;-72
2020/12/09 04:28:33;;;;;;;79.20;32.55;;;;;;;;;;4919314;29;20052;-71
2020/12/09 04:30:59;;;;;;;92.05;33.58;;;;;;;;;;4936005;29;20078;-71
2020/12/09 04:33:30;;;;;;;91.18;35.22;;;;;;;;;;4919365;29;20052;-71
2020/12/09 04:35:56;;;;;;;106.63;37.08;;;;;;;;;;4934578;29;20471;-72
2020/12/09 04:38:23;;;;;;;110.78;38.08;;;;;;;;;;4919127;29;20555;-73
2020/12/09 04:40:49;;;;;;;117.82;39.15;;;;;;;;;;4919179;29;20086;-73
2020/12/09 04:43:16;;;;;;;118.75;39.95;;;;;;;;;;4918188;29;20055;-73
2020/12/09 04:45:42;;;;;;;116.68;38.92;;;;;;;;;;4934729;29;20051;-73
2020/12/09 04:48:15;;;;;;;114.40;39.55;;;;;;;;;;4909957;29;20047;-73
2020/12/09 04:50:52;;;;;;;104.72;38.40;;;;;;;;;;4915940;29;20182;-74
2020/12/09 04:53:32;;;;;;;94.45;35.17;;;;;;;;;;4921119;29;20111;-73
2020/12/09 04:55:59;;;;;;;83.80;35.20;;;;;;;;;;4916658;29;20055;-71
2020/12/09 04:58:28;;;;;;;101.88;37.75;;;;;;;;;;4899947;29;20472;-72
2020/12/09 05:01:04;;;;;;;92.07;36.97;;;;;;;;;;4931209;29;20111;-72
2020/12/09 05:03:49;;;;;;;79.70;35.88;;;;;;;;;;4906043;29;20103;-72
2020/12/09 05:06:18;;;;;;;81.95;32.72;;;;;;;;;;4928144;29;20067;-72
2020/12/09 05:08:55;;;;;;;82.63;35.00;;;;;;;;;;4899289;29;20094;-71
2020/12/09 05:11:24;;;;;;;84.07;36.05;;;;;;;;;;4920654;29;20051;-71
2020/12/09 05:13:58;;;;;;;71.65;34.00;;;;;;;;;;4902757;29;20052;-71
2020/12/09 05:16:25;;;;;;;78.20;34.47;;;;;;;;;;4918197;29;20059;-71
2020/12/09 05:18:55;;;;;;;72.82;32.60;;;;;;;;;;4918209;29;20122;-72
2020/12/09 05:21:24;;;;;;;72.55;33.20;;;;;;;;;;4903023;29;20114;-72
2020/12/09 05:24:00;;;;;;;77.03;33.20;;;;;;;;;;4903150;29;20444;-71
2020/12/09 05:26:32;;;;;;;77.45;34.40;;;;;;;;;;4902140;29;20055;-71
2020/12/09 05:29:12;;;;;;;77.65;33.28;;;;;;;;;;4902690;29;20138;-73
2020/12/09 05:31:39;;;;;;;74.68;32.47;;;;;;;;;;4918021;29;20594;-71
2020/12/09 05:34:28;;;;;;;67.65;32.67;;;;;;;;;;4917984;29;20052;-71
2020/12/09 05:36:57;;;;;;;66.72;30.42;;;;;;;;;;4917587;29;20048;-72
2020/12/09 05:39:23;;;;;;;71.45;31.52;;;;;;;;;;4918170;29;20051;-72
2020/12/09 05:41:50;;;;;;;80.15;33.60;;;;;;;;;;4902534;29;20058;-73
2020/12/09 05:44:16;;;;;;;70.55;33.22;;;;;;;;;;4902582;29;20146;-72
2020/12/09 05:47:02;;;;;;;67.15;30.95;;;;;;;;;;4917583;29;20126;-72
2020/12/09 05:49:32;;;;;;;67.18;32.55;;;;;;;;;;4918253;29;20048;-72
2020/12/09 05:52:03;;;;;;;74.43;35.17;;;;;;;;;;4902588;29;20051;-71
2020/12/09 05:54:29;;;;;;;78.88;34.33;;;;;;;;;;4917737;29;20099;-71
2020/12/09 05:56:56;;;;;;;74.78;32.63;;;;;;;;;;4934404;29;20095;-71
2020/12/09 05:59:40;;;;;;;76.22;33.60;;;;;;;;;;4902486;29;20059;-72
2020/12/09 06:02:13;;;;;;;71.40;32.78;;;;;;;;;;4917820;29;20087;-72
2020/12/09 06:04:51;;;;;;;78.05;33.70;;;;;;;;;;4902056;29;20047;-70
2020/12/09 06:07:18;;;;;;;72.13;32.63;;;;;;;;;;4933926;29;20052;-72
2020/12/09 06:10:20;;;;;;;76.35;34.42;;;;;;;;;;4917521;29;20095;-71
2020/12/09 06:12:53;;;;;;;74.55;31.83;;;;;;;;;;4894532;29;20099;-72
2020/12/09 06:15:39;;;;;;;;;;;;;;;;;;4943351;29;20488;-72
2020/12/09 06:18:15;;;;;;;68.93;32.42;;;;;;;;;;4933754;29;19945;-72
2020/12/09 06:20:43;;;;;;;77.03;34.03;;;;;;;;;;4917140;29;20130;-71
2020/12/09 06:23:15;;;;;;;72.38;32.42;;;;;;;;;;4914567;29;20126;-72
2020/12/09 06:25:42;;;;;;;77.28;34.30;;;;;;;;;;4917283;29;20052;-71
2020/12/09 06:28:10;;;;;;;73.70;33.95;;;;;;;;;;4901073;29;20102;-72
2020/12/09 06:30:36;;;;;;;72.65;34.10;;;;;;;;;;4917585;29;20118;-72
2020/12/09 06:33:03;;;;;;;75.20;33.55;;;;;;;;;;4917419;29;20084;-71
2020/12/09 06:35:29;;;;;;;77.00;32.47;;;;;;;;;;4920920;29;20499;-72
2020/12/09 06:38:07;;;;;;;79.78;34.05;;;;;;;;;;4920924;29;20079;-72
2020/12/09 06:40:40;;;;;;;74.47;32.92;;;;;;;;;;4934211;29;20073;-72
2020/12/09 06:43:06;;;;;;;89.25;35.55;;;;;;;;;;4901501;29;20463;-72
2020/12/09 06:45:43;;;;;;;75.75;31.35;;;;;;;;;;4916715;29;20106;-72
2020/12/09 06:48:15;;;;;;;83.53;33.45;;;;;;;;;;4917328;29;20454;-72
2020/12/09 06:50:45;;;;;;;71.13;31.88;;;;;;;;;;4901404;29;20476;-72
2020/12/09 06:53:17;;;;;;;75.32;32.88;;;;;;;;;;4917670;29;20546;-72
2020/12/09 06:55:44;;;;;;;74.97;34.38;;;;;;;;;;4916756;29;20048;-72
2020/12/09 06:58:26;;;;;;;79.10;33.33;;;;;;;;;;4917108;29;20060;-72
2020/12/09 07:01:09;;;;;;;77.28;33.08;;;;;;;;;;4917106;29;20087;-72
2020/12/09 07:03:38;;;;;;;69.88;31.35;;;;;;;;;;4902845;29;20103;-71
2020/12/09 07:06:20;;;;;;;67.95;30.15;;;;;;;;;;4897017;29;20044;-71
2020/12/09 07:08:49;;;;;;;78.50;33.22;;;;;;;;;;4913216;29;20111;-71
2020/12/09 07:11:16;;;;;;;72.75;32.55;;;;;;;;;;4912279;29;20056;-71
2020/12/09 07:13:42;;;;;;;65.18;30.70;;;;;;;;;;4915761;29;20052;-71
2020/12/09 07:16:08;;;;;;;72.55;32.47;;;;;;;;;;4925123;29;20083;-72
2020/12/09 07:18:37;;;;;;;79.32;33.05;;;;;;;;;;4918830;29;20059;-71
2020/12/09 07:21:05;;;;;;;75.07;33.13;;;;;;;;;;4918538;29;20500;-71
2020/12/09 07:23:31;;;;;;;75.35;33.33;;;;;;;;;;4903322;29;20087;-71
2020/12/09 07:25:58;;;;;;;68.07;29.63;;;;;;;;;;4918550;29;20095;-71
2020/12/09 07:28:24;;;;;;;75.93;32.67;;;;;;;;;;4902668;29;20048;-71
2020/12/09 07:30:50;;;;;;;72.75;32.17;;;;;;;;;;4935615;29;20091;-71
2020/12/09 07:33:17;;;;;;;69.97;32.75;;;;;;;;;;4902618;29;20094;-71
2020/12/09 07:35:44;;;;;;;67.85;30.45;;;;;;;;;;4899371;29;20048;-71
2020/12/09 07:38:10;;;;;;;59.10;28.67;;;;;;;;;;4916163;29;20487;-71
2020/12/09 07:40:36;;;;;;;65.28;30.52;;;;;;;;;;4916531;29;20056;-72
2020/12/09 07:43:12;;;;;;;64.07;30.23;;;;;;;;;;4915185;29;20080;-72
2020/12/09 07:45:41;;;;;;;71.43;30.73;;;;;;;;;;4914367;29;20122;-72
2020/12/09 07:48:10;;;;;;;70.70;32.10;;;;;;;;;;4914923;29;20055;-72
2020/12/09 07:50:37;;;;;;;70.78;30.95;;;;;;;;;;4899253;29;20052;-73
2020/12/09 07:53:04;;;;;;;64.68;30.60;;;;;;;;;;4914938;29;20107;-72
2020/12/09 07:55:32;;;;;;;64.93;30.55;;;;;;;;;;4914423;29;20044;-72
2020/12/09 07:58:03;;;;;;;64.03;29.50;;;;;;;;;;4914728;29;20229;-72
2020/12/09 08:00:34;;;;;;;64.60;30.80;;;;;;;;;;4898621;29;20516;-72
2020/12/09 08:03:00;;;;;;;69.43;31.88;;;;;;;;;;4914826;29;20119;-73
2020/12/09 08:05:27;;;;;;;68.32;31.23;;;;;;;;;;4915648;29;20044;-72
2020/12/09 08:07:56;;;;;;;72.15;33.90;;;;;;;;;;4915792;29;20056;-73
2020/12/09 08:10:24;;;;;;;72.95;32.92;;;;;;;;;;4914949;29;20476;-73
2020/12/09 08:12:50;;;;;;;74.88;32.97;;;;;;;;;;4913961;29;20139;-72
2020/12/09 08:15:16;;;;;;;74.25;32.90;;;;;;;;;;4914166;29;20113;-72
2020/12/09 08:17:47;;;;;;;70.55;32.40;;;;;;;;;;4915709;29;20051;-73
2020/12/09 08:20:14;;;;;;;73.97;32.92;;;;;;;;;;4914758;29;20131;-72
2020/12/09 08:22:53;;;;;;;68.82;32.67;;;;;;;;;;4917028;29;20053;-72
2020/12/09 08:25:19;;;;;;;61.88;28.98;;;;;;;;;;4917075;29;20103;-72
2020/12/09 08:27:46;;;;;;;70.65;32.33;;;;;;;;;;4902166;29;20511;-72
2020/12/09 08:30:22;;;;;;;66.20;31.02;;;;;;;;;;4917519;29;20079;-72
2020/12/09 08:32:56;;;;;;;68.95;31.90;;;;;;;;;;4917292;29;20111;-72
2020/12/09 08:35:22;;;;;;;;;;;;;;;;;;4934537;29;20636;-72
2020/12/09 08:37:48;;;;;;;67.28;32.03;;;;;;;;;;4948365;29;19966;-72
2020/12/09 08:40:14;;;;;;;73.65;33.47;;;;;;;;;;4901412;29;20048;-72
2020/12/09 08:43:10;;;;;;;67.95;31.08;;;;;;;;;;4917383;29;20115;-72
2020/12/09 08:45:36;;;;;;;62.33;30.45;;;;;;;;;;4925159;29;20083;-72
2020/12/09 08:48:02;;;;;;;66.85;30.38;;;;;;;;;;4933944;29;20126;-72
2020/12/09 08:50:28;;;;;;;73.05;33.25;;;;;;;;;;4934054;29;20060;-72
2020/12/09 08:52:54;;;;;;;71.88;33.50;;;;;;;;;;4933660;29;20122;-72
2020/12/09 08:55:20;;;;;;;71.72;33.67;;;;;;;;;;4916129;29;20047;-71
2020/12/09 08:57:46;;;;;;;75.35;33.70;;;;;;;;;;4899092;29;20063;-74
2020/12/09 09:00:12;;;;;;;77.82;34.95;;;;;;;;;;4913251;29;20115;-76
2020/12/09 09:02:41;;;;;;;75.53;34.03;;;;;;;;;;4919525;29;20385;-79
2020/12/09 09:05:10;;;;;;;76.25;35.70;;;;;;;;;;4908681;29;20055;-78
2020/12/09 09:07:37;;;;;;;75.75;34.47;;;;;;;;;;4906027;29;20062;-80
2020/12/09 09:10:07;;;;;;;72.03;34.28;;;;;;;;;;4905635;29;20118;-77
2020/12/09 09:12:44;;;;;;;76.28;33.75;;;;;;;;;;4903128;29;20062;-80
2020/12/09 09:15:11;;;;;;;68.03;32.42;;;;;;;;;;4927623;29;20484;-71
2020/12/09 09:17:37;;;;;;;70.68;33.78;;;;;;;;;;4930516;29;20055;-72
2020/12/09 09:20:05;;;;;;;70.85;33.35;;;;;;;;;;4916592;29;20867;-76
2020/12/09 09:22:31;;;;;;;72.72;33.70;;;;;;;;;;4900538;29;20142;-75
2020/12/09 09:24:57;;;;;;;74.13;34.35;;;;;;;;;;4899667;29;20059;-74
2020/12/09 09:27:33;;;;;;;70.43;32.67;;;;;;;;;;4900868;29;20404;-77
2020/12/09 09:29:59;;;;;;;70.47;33.28;;;;;;;;;;4902173;29;20082;-72
2020/12/09 09:32:25;;;;;;;62.92;31.33;;;;;;;;;;4911933;29;20059;-73
2020/12/09 09:34:53;;;;;;;72.35;33.42;;;;;;;;;;4931033;29;20431;-73
2020/12/09 09:37:21;;;;;;;69.07;32.55;;;;;;;;;;4909780;29;20051;-75
2020/12/09 09:39:49;;;;;;;70.10;31.63;;;;;;;;;;4910059;29;20096;-75
2020/12/09 09:42:17;;;;;;;68.15;31.33;;;;;;;;;;4898752;29;20210;-71
2020/12/09 09:44:45;;;;;;;67.07;31.50;;;;;;;;;;4899585;29;20306;-72
2020/12/09 09:47:14;;;;;;;58.80;31.02;;;;;;;;;;5058473;23;20036;-75
2020/12/09 09:49:40;;;;;;;61.25;30.05;;;;;;;;;;4949041;29;20051;-73
2020/12/09 09:52:06;;;;;;;59.35;30.80;;;;;;;;;;4959408;28;20065;-73
2020/12/09 09:54:33;;;;;;;57.33;30.00;;;;;;;;;;4959084;28;20051;-77
2020/12/09 09:57:00;;;;;;;61.30;31.13;;;;;;;;;;4934043;28;20058;-73
2020/12/09 09:59:26;;;;;;;65.20;32.05;;;;;;;;;;4939249;28;20141;-71
2020/12/09 10:01:56;;;;;;;63.25;31.77;;;;;;;;;;4954916;28;20386;-72
2020/12/09 10:04:23;;;;;;;66.95;32.00;;;;;;;;;;4941347;28;20106;-73
2020/12/09 10:06:52;;;;;;;59.88;29.65;;;;;;;;;;4940762;29;20059;-78
2020/12/09 10:09:19;;;;;;;64.30;31.40;;;;;;;;;;4936472;28;20116;-73
2020/12/09 10:11:45;;;;;;;65.35;30.80;;;;;;;;;;4951367;28;20047;-74
2020/12/09 10:14:12;;;;;;;62.22;30.35;;;;;;;;;;4948240;28;20134;-74
2020/12/09 10:16:43;;;;;;;63.95;29.75;;;;;;;;;;4942306;29;20051;-75
2020/12/09 10:19:11;;;;;;;58.63;30.55;;;;;;;;;;4937941;28;20043;-74
2020/12/09 10:21:39;;;;;;;61.83;31.90;;;;;;;;;;4957766;28;20056;-74
2020/12/09 10:24:06;;;;;;;55.95;28.67;;;;;;;;;;4964512;28;20101;-73
2020/12/09 10:26:37;;;;;;;54.80;28.70;;;;;;;;;;4941131;28;20585;-77
2020/12/09 10:29:09;;;;;;;60.70;29.88;;;;;;;;;;4952026;28;20047;-73
2020/12/09 10:31:47;;;;;;;54.10;28.20;;;;;;;;;;4929650;28;20066;-74
2020/12/09 10:34:17;;;;;;;51.83;27.23;;;;;;;;;;4939997;28;20490;-75
2020/12/09 10:36:49;;;;;;;58.83;29.10;;;;;;;;;;4948158;28;20465;-71
2020/12/09 10:39:20;;;;;;;53.90;28.17;;;;;;;;;;4955864;28;20316;-74
2020/12/09 10:41:47;;;;;;;51.05;27.13;;;;;;;;;;4952776;28;20110;-73
2020/12/09 10:44:13;;;;;;;54.45;28.60;;;;;;;;;;4962188;28;20802;-72
2020/12/09 10:46:40;;;;;;;49.65;25.73;;;;;;;;;;4959384;28;20458;-70
2020/12/09 10:49:09;;;;;;;58.10;28.98;;;;;;;;;;4949073;28;20454;-70
2020/12/09 10:51:43;;;;;;;52.78;28.50;;;;;;;;;;4944848;28;20051;-73
2020/12/09 10:54:09;;;;;;;56.70;27.98;;;;;;;;;;4948176;28;20138;-74
2020/12/09 10:56:35;;;;;;;57.28;29.88;;;;;;;;;;4938980;28;20074;-71
2020/12/09 10:59:02;;;;;;;60.28;29.05;;;;;;;;;;4961981;28;20464;-73
2020/12/09 11:01:30;;;;;;;66.60;29.20;;;;;;;;;;4944672;28;20102;-74
2020/12/09 11:03:57;;;;;;;58.38;29.60;;;;;;;;;;4962812;28;20043;-75
2020/12/09 11:06:30;;;;;;;57.50;29.73;;;;;;;;;;4943741;28;20059;-74
2020/12/09 11:08:57;;;;;;;58.55;30.23;;;;;;;;;;4960207;28;20505;-71
2020/12/09 11:11:25;;;;;;;60.63;28.98;;;;;;;;;;4948121;28;20399;-72
2020/12/09 11:13:51;;;;;;;61.53;30.52;;;;;;;;;;4949397;28;20051;-72
2020/12/09 11:16:18;;;;;;;62.83;30.90;;;;;;;;;;4964932;28;20515;-72
2020/12/09 11:18:44;;;;;;;69.03;30.80;;;;;;;;;;4953322;28;20465;-73
2020/12/09 11:21:16;;;;;;;60.58;28.65;;;;;;;;;;4947212;28;20042;-73
2020/12/09 11:23:42;;;;;;;63.30;31.35;;;;;;;;;;4945505;28;20577;-73
2020/12/09 11:26:09;;;;;;;65.00;29.60;;;;;;;;;;4961188;28;20051;-73
2020/12/09 11:28:35;;;;;;;65.07;29.55;;;;;;;;;;4960179;28;20051;-72
2020/12/09 11:31:02;;;;;;;62.80;29.05;;;;;;;;;;4961529;28;20074;-70
2020/12/09 11:33:28;;;;;;;68.82;30.98;;;;;;;;;;4967045;28;20409;-73
2020/12/09 11:35:55;;;;;;;71.28;29.92;;;;;;;;;;4962027;28;20051;-71
2020/12/09 11:38:21;;;;;;;69.10;30.20;;;;;;;;;;4960249;28;20729;-75
2020/12/09 11:40:47;;;;;;;63.22;28.85;;;;;;;;;;4960785;28;20063;-72
2020/12/09 11:43:16;;;;;;;73.07;30.75;;;;;;;;;;4964626;28;20121;-74
2020/12/09 11:45:42;;;;;;;68.05;31.13;;;;;;;;;;4958832;28;20082;-74
2020/12/09 11:48:09;;;;;;;70.57;31.17;;;;;;;;;;4962813;28;20058;-73
2020/12/09 11:50:35;;;;;;;74.22;31.58;;;;;;;;;;4958533;28;20105;-71
2020/12/09 11:53:01;;;;;;;73.13;32.95;;;;;;;;;;4946111;28;20050;-71
2020/12/09 11:55:27;;;;;;;69.28;30.42;;;;;;;;;;4958194;28;20734;-71
2020/12/09 11:57:53;;;;;;;74.30;32.47;;;;;;;;;;4964660;28;20054;-71
2020/12/09 12:00:19;;;;;;;70.38;31.48;;;;;;;;;;4962020;28;20062;-71
2020/12/09 12:02:45;;;;;;;68.05;30.52;;;;;;;;;;4958863;28;20063;-72
2020/12/09 12:05:11;;;;;;;69.90;31.27;;;;;;;;;;4959920;28;20128;-72
2020/12/09 12:07:37;;;;;;;71.20;30.13;;;;;;;;;;4959432;28;20051;-72
2020/12/09 12:10:04;;;;;;;73.05;31.10;;;;;;;;;;4965091;28;20066;-72
2020/12/09 12:12:31;;;;;;;73.30;30.05;;;;;;;;;;4960214;28;20102;-73
2020/12/09 12:14:57;;;;;;;66.60;29.23;;;;;;;;;;4943640;28;20051;-73
2020/12/09 12:17:23;;;;;;;73.30;31.27;;;;;;;;;;4938992;28;20055;-73
2020/12/09 12:19:49;;;;;;;70.13;28.92;;;;;;;;;;4962640;28;20078;-73
2020/12/09 12:22:16;;;;;;;69.55;29.80;;;;;;;;;;4955426;28;20141;-74
2020/12/09 12:24:42;;;;;;;71.25;30.00;;;;;;;;;;4991640;23;20107;-65
2020/12/09 12:27:08;;;;;;;76.10;30.65;;;;;;;;;;4944705;29;20048;-65
2020/12/09 12:29:34;;;;;;;70.25;29.38;;;;;;;;;;4942623;29;21627;-65
2020/12/09 12:32:01;;;;;;;72.32;30.40;;;;;;;;;;4941849;29;20051;-65
2020/12/09 12:34:27;;;;;;;62.25;28.40;;;;;;;;;;4937093;29;20482;-65
2020/12/09 12:36:57;;;;;;;71.43;31.05;;;;;;;;;;4947889;29;20494;-67
2020/12/09 12:39:23;;;;;;;72.70;30.45;;;;;;;;;;4941314;29;20402;-66
2020/12/09 12:41:50;;;;;;;74.15;31.23;;;;;;;;;;4947956;29;20050;-67
2020/12/09 12:44:16;;;;;;;73.55;31.17;;;;;;;;;;4949656;29;20070;-67
2020/12/09 12:46:47;;;;;;;69.13;30.63;;;;;;;;;;4943117;29;20059;-68
2020/12/09 12:49:14;;;;;;;66.72;30.33;;;;;;;;;;4950067;29;20047;-68
2020/12/09 12:51:40;;;;;;;69.63;31.33;;;;;;;;;;4949174;29;20425;-66
2020/12/09 12:54:07;;;;;;;69.70;29.27;;;;;;;;;;4949543;29;20043;-65
2020/12/09 12:56:33;;;;;;;67.35;29.50;;;;;;;;;;4950131;29;20055;-65
2020/12/09 12:58:59;;;;;;;75.70;30.23;;;;;;;;;;4950504;29;20058;-66
2020/12/09 13:01:26;;;;;;;64.35;28.73;;;;;;;;;;4950770;29;20051;-67
2020/12/09 13:03:52;;;;;;;64.68;29.23;;;;;;;;;;4950696;29;20438;-67
2020/12/09 13:06:20;;;;;;;68.45;30.35;;;;;;;;;;4949490;29;20146;-66
2020/12/09 13:08:46;;;;;;;62.63;28.52;;;;;;;;;;4934199;29;20054;-66
2020/12/09 13:11:12;;;;;;;61.13;27.40;;;;;;;;;;4949504;29;20040;-66
2020/12/09 13:13:38;;;;;;;63.42;29.02;;;;;;;;;;4952299;29;20047;-65
2020/12/09 13:16:06;;;;;;;66.18;31.35;;;;;;;;;;4949511;29;20055;-66
2020/12/09 13:18:33;;;;;;;61.03;27.48;;;;;;;;;;4952286;29;20134;-65
2020/12/09 13:20:59;;;;;;;59.42;27.42;;;;;;;;;;4949704;29;20046;-65
2020/12/09 13:23:26;;;;;;;63.72;28.92;;;;;;;;;;4951592;29;20050;-67
2020/12/09 13:25:52;;;;;;;65.00;28.15;;;;;;;;;;4949008;29;20396;-65
2020/12/09 13:28:19;;;;;;;64.47;29.35;;;;;;;;;;4951127;29;20047;-66
2020/12/09 13:30:45;;;;;;;66.60;31.75;;;;;;;;;;4948794;29;20094;-66
2020/12/09 13:33:14;;;;;;;64.30;28.77;;;;;;;;;;4951195;29;20066;-65
2020/12/09 13:35:45;;;;;;;60.95;26.48;;;;;;;;;;4947344;29;20048;-65
2020/12/09 13:38:11;;;;;;;59.65;28.10;;;;;;;;;;4948400;29;20039;-65
2020/12/09 13:40:39;;;;;;;57.10;25.30;;;;;;;;;;4949392;29;20486;-65
2020/12/09 13:43:07;;;;;;;56.45;27.05;;;;;;;;;;4948583;29;20130;-65
2020/12/09 13:45:33;;;;;;;59.58;26.98;;;;;;;;;;4957673;29;20051;-64
2020/12/09 13:48:00;;;;;;;68.85;27.27;;;;;;;;;;4966534;29;20048;-68
2020/12/09 13:50:26;;;;;;;58.35;27.85;;;;;;;;;;4965654;29;20066;-65
2020/12/09 13:52:52;;;;;;;60.33;27.40;;;;;;;;;;4964670;29;20049;-65
2020/12/09 13:55:19;;;;;;;65.85;30.20;;;;;;;;;;4949812;29;20055;-65
2020/12/09 13:57:45;;;;;;;52.22;25.80;;;;;;;;;;4942345;29;20054;-65
2020/12/09 14:00:11;;;;;;;60.72;27.48;;;;;;;;;;4950646;29;20043;-65
2020/12/09 14:02:38;;;;;;;68.88;28.95;;;;;;;;;;4948716;29;20054;-65
2020/12/09 14:05:05;;;;;;;62.92;28.75;;;;;;;;;;4947752;29;20050;-65
2020/12/09 14:07:32;;;;;;;67.10;30.77;;;;;;;;;;4939016;29;20055;-64
2020/12/09 14:09:58;;;;;;;64.00;28.80;;;;;;;;;;4941788;28;20055;-65
2020/12/09 14:12:25;;;;;;;62.10;28.38;;;;;;;;;;4948259;29;20586;-65
2020/12/09 14:14:51;;;;;;;60.22;28.48;;;;;;;;;;4944197;29;20407;-65
2020/12/09 14:17:19;;;;;;;60.15;27.08;;;;;;;;;;4947910;29;20057;-64
2020/12/09 14:19:47;;;;;;;56.63;26.60;;;;;;;;;;4949292;29;20087;-65
2020/12/09 14:22:15;;;;;;;59.55;26.90;;;;;;;;;;4947573;28;20127;-65
2020/12/09 14:24:41;;;;;;;62.65;29.77;;;;;;;;;;4946541;29;20051;-65